Cushman Dam, Washington
Current Conditions -  °F | °C
As of 11:32 PM on Wednesday 17 Dec 2014 (Local Time) from KSHN Reporting Station
Haze Haze  
Wind Chill: 43°   Ceiling: 300
Heat Index: 43°   Visibility: 2mi
Dew Point: 42°   Wind: 3mph
Humidity: 97%   Direction: 220°SW
Pressure: 29.9"   Gusts: NA
Location:  47.4532°N, 123.173°W
Report Text: KSHN 180732Z AUTO 22003KT 2SM BR OVC003 06/06 A2990 RMK AO2 T00610056
Loading
Personal Weather Stations






























Interactive Weather Map New forecast layout! Learn more

10-Day Weather Forecast

Advertisements
Track Severe Weather on mobile